aviador You're here:

KLBX Decoded Metar

ANGLETON in TX, USA
Report Time2018-06-17 20:53:00
UTC Time2018-06-17 21:44:28
Flight Rules vfr VFR
Wind120° at 10 kt
W.Decomp.*RWY 17: 5.7 kt HW 8.2 kt LCW
W.Rank120° ranks 13
Current wind is above 120° avg. (6.4)
Visibility9999 m
Phenomena:N/A
Clouds:Scattered 036 Hf
Scattered 065 Hf
Broken 080 Hf
Expected CloudBase > 3,200 ft AGL from Temp-Dew spread
Ceiling8,000 ft
Temp32°C (ISA +17)
Dew Point24°C (63% RH)
Heat Index38.0°C
QNH1011 hPa
Density Alt2,425 ft
Elevation20 ft
Report Wrong Elevation
Raw Report
KLBX 172053Z AUTO 12010KT 10SM SCT036 SCT065 BKN080 32/24 A2986
RMK AO2 RAB39E52 SLP111 P0000 60000 T03220239 55009=

Extra information for KLBX:More info

Metar Taf Metar & Taf Last 4 Metars F.Rules Stats Wind Profile Meteogram Temp Stats Airport Information Weather charts Add Link Nearby VenuesMetar ALERT Operation Metar Decoded Social comments

AIRNAV info for KLBX